Time;durP1;ratioP1;P1;durP2;ratioP2;P2;SDS_P1;SDS_P2;PMS_P1;PMS_P2;Temp;Humidity;BMP_temperature;BMP_pressure;BME280_temperature;BME280_humidity;BME280_pressure;Samples;Min_cycle;Max_cycle;Signal;HPM_P1;HPM_P2
2023/08/03 00:00:06;;;;;;;7.15;5.38;;;19.10;99.90;;;;;;5137164;27;20039;-57
2023/08/03 00:02:37;;;;;;;7.15;5.68;;;19.10;99.90;;;;;;5137309;27;20027;-57
2023/08/03 00:05:04;;;;;;;6.85;5.60;;;19.20;99.90;;;;;;5136781;27;20097;-57
2023/08/03 00:07:31;;;;;;;8.60;4.78;;;19.10;99.90;;;;;;5137030;27;20066;-58
2023/08/03 00:09:57;;;;;;;6.55;5.57;;;19.10;99.90;;;;;;5136942;27;20323;-58
2023/08/03 00:12:23;;;;;;;10.30;4.97;;;19.10;99.90;;;;;;5136628;27;20041;-57
2023/08/03 00:14:49;;;;;;;7.53;5.35;;;19.10;99.90;;;;;;5136859;27;20019;-58
2023/08/03 00:17:15;;;;;;;6.82;4.80;;;19.00;99.90;;;;;;5136867;27;20026;-57
2023/08/03 00:19:41;;;;;;;7.25;4.72;;;19.00;99.90;;;;;;5136636;27;20046;-58
2023/08/03 00:22:08;;;;;;;9.57;5.20;;;18.90;99.90;;;;;;5126099;27;20024;-57
2023/08/03 00:24:34;;;;;;;5.22;4.20;;;18.90;99.90;;;;;;5116152;28;20055;-58
2023/08/03 00:27:00;;;;;;;8.00;5.03;;;18.90;99.90;;;;;;5115984;28;20059;-57
2023/08/03 00:29:26;;;;;;;6.47;4.68;;;18.90;99.90;;;;;;5115948;28;20038;-57
2023/08/03 00:31:52;;;;;;;8.15;4.72;;;18.90;99.90;;;;;;5116004;28;20102;-57
2023/08/03 00:34:18;;;;;;;7.00;5.22;;;18.90;99.90;;;;;;5097449;28;20066;-57
2023/08/03 00:36:44;;;;;;;10.48;4.75;;;18.90;99.90;;;;;;5116290;28;20027;-58
2023/08/03 00:39:10;;;;;;;8.80;5.57;;;18.80;99.90;;;;;;5115909;28;20076;-57
2023/08/03 00:41:36;;;;;;;8.40;5.20;;;18.80;99.90;;;;;;5115596;28;20370;-57
2023/08/03 00:44:02;;;;;;;8.55;5.20;;;18.80;99.90;;;;;;5115816;28;20034;-57
2023/08/03 00:46:28;;;;;;;9.77;5.10;;;18.80;99.90;;;;;;5097272;28;20031;-58
2023/08/03 00:48:54;;;;;;;5.68;4.82;;;18.90;99.90;;;;;;5115610;28;20102;-58
2023/08/03 00:51:20;;;;;;;9.43;5.53;;;18.80;99.90;;;;;;5115588;28;20572;-57
2023/08/03 00:53:46;;;;;;;8.25;5.60;;;18.80;99.90;;;;;;5115776;28;20083;-57
2023/08/03 00:56:12;;;;;;;8.35;5.25;;;18.80;99.90;;;;;;5115623;28;20055;-58
2023/08/03 00:58:41;;;;;;;10.82;5.68;;;18.80;99.90;;;;;;5115501;28;20099;-58
2023/08/03 01:01:07;;;;;;;7.47;5.60;;;18.80;99.90;;;;;;5114413;28;20034;-58
2023/08/03 01:03:33;;;;;;;12.02;6.10;;;18.70;99.90;;;;;;5115335;28;20024;-58
2023/08/03 01:05:59;;;;;;;6.82;5.30;;;18.70;99.90;;;;;;5115346;28;20046;-58
2023/08/03 01:08:25;;;;;;;9.15;5.68;;;18.60;99.90;;;;;;5115109;28;20035;-57
2023/08/03 01:10:55;;;;;;;12.07;6.60;;;18.60;99.90;;;;;;5096984;28;20035;-58
2023/08/03 01:13:22;;;;;;;11.10;6.27;;;18.60;99.90;;;;;;5097093;28;20085;-58
2023/08/03 01:15:48;;;;;;;7.78;5.25;;;18.60;99.90;;;;;;5115008;28;20023;-58
2023/08/03 01:18:14;;;;;;;9.45;5.65;;;18.50;99.90;;;;;;5115258;28;20076;-58
2023/08/03 01:20:42;;;;;;;9.70;5.38;;;18.50;99.90;;;;;;5115106;28;20024;-58
2023/08/03 01:23:08;;;;;;;9.93;5.38;;;18.50;99.90;;;;;;5134042;27;20023;-58
2023/08/03 01:25:35;;;;;;;8.68;5.53;;;18.50;99.90;;;;;;5117227;28;20061;-58
2023/08/03 01:28:05;;;;;;;7.47;5.68;;;18.40;99.90;;;;;;5135630;27;20034;-58
2023/08/03 01:30:31;;;;;;;9.82;5.63;;;18.40;99.90;;;;;;5117078;28;20023;-57
2023/08/03 01:32:58;;;;;;;6.80;5.75;;;18.40;99.90;;;;;;5135557;27;20027;-57
2023/08/03 01:35:24;;;;;;;11.65;5.65;;;18.30;99.90;;;;;;5117132;28;20027;-58
2023/08/03 01:37:51;;;;;;;8.60;5.28;;;18.50;99.90;;;;;;5117068;28;20035;-57
2023/08/03 01:40:17;;;;;;;7.43;5.72;;;18.40;99.90;;;;;;5135488;28;20047;-58
2023/08/03 01:42:45;;;;;;;8.80;5.10;;;18.30;99.90;;;;;;5135496;28;20107;-57
2023/08/03 01:45:11;;;;;;;8.15;5.18;;;18.20;99.90;;;;;;5116824;28;20518;-57
2023/08/03 01:47:37;;;;;;;10.32;5.75;;;18.10;99.90;;;;;;5135381;28;20031;-57
2023/08/03 01:50:04;;;;;;;6.68;5.25;;;18.10;99.90;;;;;;5135441;28;20442;-57
2023/08/03 01:52:30;;;;;;;7.43;5.10;;;18.10;99.90;;;;;;5135298;28;20019;-57
2023/08/03 01:54:55;;;;;;;9.23;5.57;;;18.00;99.90;;;;;;5135411;28;20016;-57
2023/08/03 01:57:21;;;;;;;6.75;5.20;;;18.00;99.90;;;;;;5135246;28;20067;-58
2023/08/03 01:59:47;;;;;;;9.25;5.20;;;18.10;99.90;;;;;;5135234;28;20023;-58
2023/08/03 02:02:13;;;;;;;10.20;5.43;;;18.00;99.90;;;;;;5116906;28;20080;-58
2023/08/03 02:04:39;;;;;;;9.90;5.88;;;17.90;99.90;;;;;;5135112;28;20050;-58
2023/08/03 02:07:16;;;;;;;6.95;5.80;;;18.00;99.90;;;;;;5116678;28;20045;-57
2023/08/03 02:09:43;;;;;;;8.52;5.85;;;17.90;99.90;;;;;;5116658;28;20061;-57
2023/08/03 02:12:09;;;;;;;10.10;5.72;;;18.00;99.90;;;;;;5136630;27;20074;-57
2023/08/03 02:14:35;;;;;;;9.13;5.47;;;18.00;99.90;;;;;;5139103;27;20084;-57
2023/08/03 02:17:02;;;;;;;7.55;5.70;;;18.00;99.90;;;;;;5120822;27;20027;-58
2023/08/03 02:19:28;;;;;;;9.10;5.47;;;18.10;99.90;;;;;;5120652;27;20480;-58
2023/08/03 02:21:54;;;;;;;9.65;5.35;;;18.10;99.90;;;;;;5111989;28;20036;-58
2023/08/03 02:24:19;;;;;;;8.40;5.93;;;18.10;99.90;;;;;;5100160;28;20035;-57
2023/08/03 02:26:45;;;;;;;8.48;5.95;;;18.00;99.90;;;;;;5099901;28;20038;-58
2023/08/03 02:29:11;;;;;;;9.20;6.22;;;18.00;99.90;;;;;;5100072;28;20036;-58
2023/08/03 02:31:37;;;;;;;9.13;5.97;;;18.00;99.90;;;;;;5100139;28;20035;-58
2023/08/03 02:34:04;;;;;;;12.35;6.53;;;17.90;99.90;;;;;;5118071;28;20384;-57
2023/08/03 02:36:37;;;;;;;23.17;17.63;;;17.90;99.90;;;;;;5100083;28;20028;-58
2023/08/03 02:39:08;;;;;;;;;;;18.00;99.90;;;;;;5100366;28;20024;-57
2023/08/03 02:41:38;;;;;;;31.52;26.42;;;18.00;99.90;;;;;;5099820;28;19915;-57
2023/08/03 02:44:05;;;;;;;27.63;23.63;;;18.00;99.90;;;;;;5100006;28;20050;-58
2023/08/03 02:46:33;;;;;;;18.60;13.90;;;18.10;99.90;;;;;;5099637;28;20480;-57
2023/08/03 02:49:00;;;;;;;15.60;11.90;;;18.10;99.90;;;;;;5099747;28;20059;-57
2023/08/03 02:51:28;;;;;;;10.95;7.78;;;18.10;99.90;;;;;;5099738;28;20100;-57
2023/08/03 02:53:54;;;;;;;10.90;6.43;;;18.10;99.90;;;;;;5099625;28;20055;-58
2023/08/03 02:56:20;;;;;;;8.30;5.75;;;18.10;99.90;;;;;;5099384;28;20020;-57
2023/08/03 02:58:50;;;;;;;12.25;6.05;;;18.00;99.90;;;;;;5099527;28;20020;-57
2023/08/03 03:01:26;;;;;;;7.10;5.47;;;17.90;99.90;;;;;;5099638;28;20456;-58
2023/08/03 03:03:55;;;;;;;11.25;5.38;;;17.90;99.90;;;;;;5099142;28;20019;-58
2023/08/03 03:06:21;;;;;;;9.88;5.88;;;17.90;99.90;;;;;;5099289;28;20077;-57
2023/08/03 03:08:49;;;;;;;8.68;6.70;;;18.00;99.90;;;;;;5099206;28;20046;-58
2023/08/03 03:11:15;;;;;;;10.25;6.60;;;18.00;99.90;;;;;;5098958;28;20032;-57
2023/08/03 03:13:41;;;;;;;11.57;8.02;;;18.00;99.90;;;;;;5099193;28;20032;-57
2023/08/03 03:16:07;;;;;;;11.68;8.65;;;18.00;99.90;;;;;;5099173;28;20031;-58
2023/08/03 03:18:33;;;;;;;13.82;9.35;;;18.00;99.90;;;;;;5099130;28;20024;-58
2023/08/03 03:20:59;;;;;;;9.90;7.63;;;18.10;99.90;;;;;;5099671;27;20077;-57
2023/08/03 03:23:25;;;;;;;9.68;7.90;;;18.00;99.90;;;;;;5136690;27;20101;-58
2023/08/03 03:25:50;;;;;;;9.18;7.28;;;18.00;99.90;;;;;;5137874;27;20063;-58
2023/08/03 03:28:16;;;;;;;12.70;6.63;;;18.00;99.90;;;;;;5119461;27;20030;-58
2023/08/03 03:30:42;;;;;;;7.43;6.20;;;18.00;99.90;;;;;;5119311;27;20033;-57
2023/08/03 03:33:08;;;;;;;10.93;6.82;;;18.00;99.90;;;;;;5137559;27;20094;-58
2023/08/03 03:35:39;;;;;;;13.60;8.05;;;18.00;99.90;;;;;;5119292;27;20073;-58
2023/08/03 03:38:05;;;;;;;14.32;8.07;;;18.00;99.90;;;;;;5119166;27;20031;-57
2023/08/03 03:40:31;;;;;;;13.57;7.55;;;18.00;99.90;;;;;;5119151;27;20023;-58
2023/08/03 03:42:59;;;;;;;9.25;7.07;;;18.00;99.90;;;;;;5119219;27;20027;-58
2023/08/03 03:45:29;;;;;;;15.13;7.90;;;18.00;99.90;;;;;;5119043;27;20118;-58
2023/08/03 03:47:55;;;;;;;8.25;7.03;;;18.00;99.90;;;;;;5119062;27;20038;-58
2023/08/03 03:50:21;;;;;;;13.23;6.80;;;18.00;99.90;;;;;;5119028;27;20502;-58
2023/08/03 03:52:48;;;;;;;10.10;7.03;;;18.00;99.90;;;;;;5118762;27;20491;-57
2023/08/03 03:55:16;;;;;;;11.15;7.35;;;18.00;99.90;;;;;;5118865;27;20426;-57
2023/08/03 03:57:45;;;;;;;11.20;7.05;;;18.10;99.90;;;;;;5118982;27;20042;-58
2023/08/03 04:00:11;;;;;;;11.52;6.90;;;18.10;99.90;;;;;;5118497;27;20028;-58
2023/08/03 04:02:43;;;;;;;12.73;7.28;;;18.10;99.90;;;;;;5137404;27;20034;-57
2023/08/03 04:05:14;;;;;;;12.23;7.43;;;18.10;99.90;;;;;;5115142;28;20039;-57
2023/08/03 04:07:40;;;;;;;14.25;7.63;;;18.10;99.90;;;;;;5115071;28;20511;-58
2023/08/03 04:10:06;;;;;;;10.68;7.40;;;18.20;99.90;;;;;;5115077;28;20072;-58
2023/08/03 04:12:32;;;;;;;15.43;8.52;;;18.20;99.90;;;;;;5116472;28;20023;-58
2023/08/03 04:14:58;;;;;;;12.80;8.13;;;18.30;99.90;;;;;;5116261;28;20518;-58
2023/08/03 04:17:24;;;;;;;14.70;7.85;;;18.30;99.90;;;;;;5116243;28;20031;-58
2023/08/03 04:19:50;;;;;;;12.52;8.15;;;18.30;99.90;;;;;;5116236;28;20028;-58
2023/08/03 04:22:16;;;;;;;13.45;8.20;;;18.30;99.90;;;;;;5103105;28;20070;-58
2023/08/03 04:24:42;;;;;;;18.75;8.20;;;18.40;99.90;;;;;;5094341;28;20024;-58
2023/08/03 04:27:08;;;;;;;14.38;8.20;;;18.30;99.90;;;;;;5094247;28;20546;-58
2023/08/03 04:29:34;;;;;;;12.82;7.85;;;18.40;99.90;;;;;;5094064;28;20035;-58
2023/08/03 04:32:01;;;;;;;13.55;7.97;;;18.50;99.90;;;;;;5095986;28;20031;-58
2023/08/03 04:34:27;;;;;;;12.73;7.70;;;18.50;99.90;;;;;;5093877;28;20028;-58
2023/08/03 04:37:00;;;;;;;10.43;7.30;;;18.50;99.90;;;;;;5094192;28;20032;-58
2023/08/03 04:39:26;;;;;;;18.65;7.70;;;18.50;99.90;;;;;;5095518;28;20028;-57
2023/08/03 04:41:52;;;;;;;13.23;7.55;;;18.60;99.90;;;;;;5094153;28;20024;-58
2023/08/03 04:44:20;;;;;;;12.48;7.45;;;18.60;99.90;;;;;;5093927;28;20178;-58
2023/08/03 04:46:46;;;;;;;16.27;8.40;;;18.70;99.90;;;;;;5095395;28;20052;-58
2023/08/03 04:49:13;;;;;;;11.20;8.43;;;18.70;99.90;;;;;;5095241;28;20279;-58
2023/08/03 04:51:44;;;;;;;12.02;7.25;;;18.90;99.90;;;;;;5095488;28;20020;-58
2023/08/03 04:54:15;;;;;;;;;;;18.90;99.90;;;;;;5094493;28;20026;-58
2023/08/03 04:56:41;;;;;;;18.63;8.77;;;19.00;99.90;;;;;;5093603;28;20005;-57
2023/08/03 04:59:07;;;;;;;14.40;7.35;;;19.10;99.90;;;;;;5093896;28;20035;-58
2023/08/03 05:01:33;;;;;;;17.65;8.57;;;19.20;99.90;;;;;;5095149;28;20023;-58
2023/08/03 05:04:02;;;;;;;14.27;8.77;;;19.30;99.90;;;;;;5090293;28;20111;-58
2023/08/03 05:06:29;;;;;;;11.63;8.53;;;19.40;99.90;;;;;;5095042;28;20028;-58
2023/08/03 05:08:56;;;;;;;12.07;7.93;;;19.50;99.90;;;;;;5094948;28;20028;-58
2023/08/03 05:11:25;;;;;;;13.70;8.23;;;19.50;99.90;;;;;;5076586;28;20049;-58
2023/08/03 05:13:51;;;;;;;11.50;7.78;;;19.60;99.90;;;;;;5076590;28;20032;-58
2023/08/03 05:16:23;;;;;;;12.02;7.90;;;19.70;99.90;;;;;;5095012;28;20031;-58
2023/08/03 05:18:49;;;;;;;14.45;8.10;;;19.80;99.90;;;;;;5076465;28;20035;-57
2023/08/03 05:21:15;;;;;;;16.67;8.77;;;19.90;99.90;;;;;;5094341;28;20032;-57
2023/08/03 05:23:40;;;;;;;19.58;8.23;;;20.00;99.90;;;;;;5094631;28;20030;-57
2023/08/03 05:26:06;;;;;;;18.50;9.75;;;20.20;99.90;;;;;;5094586;28;20098;-57
2023/08/03 05:28:32;;;;;;;21.25;7.95;;;20.30;99.90;;;;;;5094637;28;20028;-58
2023/08/03 05:31:01;;;;;;;20.02;8.65;;;20.40;99.90;;;;;;5092092;28;20016;-57
2023/08/03 05:33:27;;;;;;;13.68;8.02;;;20.50;99.90;;;;;;5094120;28;20024;-58
2023/08/03 05:35:53;;;;;;;13.82;7.07;;;20.70;99.90;;;;;;5094996;28;20059;-57
2023/08/03 05:38:19;;;;;;;11.18;7.38;;;20.80;99.90;;;;;;5094667;28;20473;-57
2023/08/03 05:40:45;;;;;;;15.77;8.85;;;20.90;99.90;;;;;;5095174;28;20085;-57
2023/08/03 05:43:13;;;;;;;13.85;7.18;;;21.00;99.90;;;;;;5094557;28;20028;-57
2023/08/03 05:45:48;;;;;;;19.50;7.57;;;21.10;99.90;;;;;;5093975;28;20024;-57
2023/08/03 05:48:22;;;;;;;11.63;6.80;;;21.20;99.90;;;;;;5097879;28;20028;-57
2023/08/03 05:50:50;;;;;;;15.55;8.48;;;21.30;99.90;;;;;;5098471;28;20381;-57
2023/08/03 05:53:20;;;;;;;15.57;7.32;;;21.40;99.90;;;;;;5098327;28;20028;-57
2023/08/03 05:55:47;;;;;;;13.98;7.10;;;21.50;99.90;;;;;;5098232;28;20508;-58
2023/08/03 05:58:15;;;;;;;14.52;6.85;;;21.70;99.90;;;;;;5098331;28;20098;-57
2023/08/03 06:00:45;;;;;;;14.05;7.15;;;21.80;99.90;;;;;;5098128;28;20038;-57
2023/08/03 06:03:13;;;;;;;12.23;7.20;;;21.90;99.90;;;;;;5098248;28;20050;-58
2023/08/03 06:05:43;;;;;;;10.60;6.90;;;22.10;99.90;;;;;;5098016;28;20048;-57
2023/08/03 06:08:20;;;;;;;12.23;7.22;;;22.10;99.90;;;;;;5097942;28;20473;-57
2023/08/03 06:10:51;;;;;;;12.57;6.90;;;22.30;99.90;;;;;;5098076;28;20024;-57
2023/08/03 06:13:19;;;;;;;13.43;6.57;;;22.40;99.90;;;;;;5096116;28;20104;-57
2023/08/03 06:15:46;;;;;;;18.17;7.47;;;22.60;99.90;;;;;;5096986;28;20020;-57
2023/08/03 06:18:17;;;;;;;21.42;7.10;;;22.80;99.90;;;;;;5096783;28;20042;-57
2023/08/03 06:20:50;;;;;;;10.98;6.05;;;23.00;99.90;;;;;;5097241;28;20028;-57
2023/08/03 06:23:26;;;;;;;17.63;6.60;;;23.20;99.90;;;;;;5097387;28;20032;-57
2023/08/03 06:25:55;;;;;;;13.35;6.22;;;23.40;99.90;;;;;;5097714;28;20465;-57
2023/08/03 06:28:23;;;;;;;17.85;7.68;;;23.60;99.90;;;;;;5096000;28;20194;-57
2023/08/03 06:30:51;;;;;;;15.20;7.50;;;23.80;99.90;;;;;;5097701;28;20032;-57
2023/08/03 06:33:19;;;;;;;22.75;7.68;;;24.00;99.90;;;;;;5097461;28;20122;-57
2023/08/03 06:35:46;;;;;;;15.90;7.63;;;24.10;99.90;;;;;;5097556;28;20051;-57
2023/08/03 06:38:15;;;;;;;17.02;7.53;;;24.30;99.90;;;;;;5097587;28;20036;-57
2023/08/03 06:40:42;;;;;;;15.63;7.63;;;24.50;99.90;;;;;;5097217;28;20102;-57
2023/08/03 06:43:09;;;;;;;17.77;7.90;;;24.70;99.90;;;;;;5097157;28;20092;-57
2023/08/03 06:45:36;;;;;;;15.13;6.43;;;24.90;99.90;;;;;;5097436;28;20194;-57
2023/08/03 06:48:02;;;;;;;14.40;6.38;;;25.10;99.70;;;;;;5097091;28;20086;-57
2023/08/03 06:50:32;;;;;;;13.15;6.40;;;25.20;98.20;;;;;;5097350;28;20059;-57
2023/08/03 06:52:59;;;;;;;17.95;6.65;;;25.40;98.60;;;;;;5097251;28;20485;-58
2023/08/03 06:55:26;;;;;;;19.00;7.35;;;25.70;99.90;;;;;;5096963;28;20028;-57
2023/08/03 06:57:52;;;;;;;16.00;6.68;;;25.80;99.90;;;;;;5097115;28;20043;-57
2023/08/03 07:00:18;;;;;;;12.63;6.00;;;26.00;97.50;;;;;;5097186;28;20028;-57
2023/08/03 07:02:46;;;;;;;13.63;6.00;;;26.20;95.40;;;;;;5078826;28;20040;-57
2023/08/03 07:05:12;;;;;;;11.43;5.57;;;26.40;97.40;;;;;;5096881;28;20418;-57
2023/08/03 07:07:38;;;;;;;15.30;6.20;;;26.60;95.80;;;;;;5096526;28;20106;-58
2023/08/03 07:10:05;;;;;;;20.70;6.32;;;26.80;94.60;;;;;;5096760;28;20028;-57
2023/08/03 07:12:32;;;;;;;16.02;5.70;;;27.10;94.70;;;;;;5096678;28;20024;-57
2023/08/03 07:14:58;;;;;;;15.27;5.35;;;27.30;92.50;;;;;;5096849;28;20409;-57
2023/08/03 07:17:23;;;;;;;12.63;5.60;;;27.60;95.20;;;;;;5096621;28;20035;-57
2023/08/03 07:19:54;;;;;;;11.63;5.30;;;27.90;92.90;;;;;;5096635;28;20085;-57
2023/08/03 07:22:21;;;;;;;16.48;6.40;;;28.10;83.00;;;;;;5096514;28;20458;-57
2023/08/03 07:24:47;;;;;;;14.55;5.60;;;28.40;88.10;;;;;;5096612;28;20024;-57
2023/08/03 07:27:14;;;;;;;13.52;4.05;;;28.70;89.10;;;;;;5096593;28;20400;-57
2023/08/03 07:29:41;;;;;;;11.45;5.20;;;28.70;73.30;;;;;;5096296;28;20035;-57
2023/08/03 07:32:07;;;;;;;11.07;4.65;;;28.90;75.00;;;;;;5096351;28;20093;-57
2023/08/03 07:34:33;;;;;;;13.70;4.80;;;29.10;70.80;;;;;;5096451;28;20032;-57
2023/08/03 07:37:02;;;;;;;8.30;4.75;;;29.50;73.20;;;;;;5096182;28;20028;-57
2023/08/03 07:39:31;;;;;;;18.10;6.10;;;30.00;74.00;;;;;;5096238;28;20054;-57
2023/08/03 07:41:56;;;;;;;13.32;4.97;;;30.30;65.90;;;;;;5096194;28;20167;-57
2023/08/03 07:44:22;;;;;;;10.65;4.22;;;30.60;61.70;;;;;;5095999;28;20032;-57
2023/08/03 07:46:48;;;;;;;6.57;3.65;;;30.50;60.80;;;;;;5096141;28;20055;-57
2023/08/03 07:49:14;;;;;;;9.48;4.43;;;30.90;60.70;;;;;;5096510;28;20458;-57
2023/08/03 07:51:40;;;;;;;7.75;4.13;;;30.80;58.40;;;;;;5095653;28;20024;-57
2023/08/03 07:54:06;;;;;;;10.07;4.38;;;31.20;57.20;;;;;;5095758;28;20020;-57
2023/08/03 07:56:32;;;;;;;7.85;3.58;;;31.30;58.70;;;;;;5095950;28;20041;-57
2023/08/03 07:59:00;;;;;;;8.95;4.93;;;31.60;55.00;;;;;;5095641;28;20024;-57
2023/08/03 08:01:26;;;;;;;8.35;3.95;;;31.70;57.60;;;;;;5095947;28;20034;-58
2023/08/03 08:03:52;;;;;;;20.55;5.32;;;32.00;58.80;;;;;;5095648;28;20043;-57
2023/08/03 08:06:19;;;;;;;7.75;4.20;;;32.10;57.10;;;;;;5095498;28;20032;-57
2023/08/03 08:08:47;;;;;;;8.07;4.03;;;31.90;54.50;;;;;;5095807;28;20032;-57
2023/08/03 08:11:15;;;;;;;7.25;3.88;;;32.40;55.30;;;;;;5095204;28;20236;-58
2023/08/03 08:13:44;;;;;;;9.45;3.92;;;32.40;55.30;;;;;;5095541;28;20524;-57
2023/08/03 08:16:15;;;;;;;10.02;5.13;;;32.30;51.10;;;;;;5095677;28;20377;-57
2023/08/03 08:18:44;;;;;;;14.07;5.65;;;32.60;52.10;;;;;;5095434;28;20381;-57
2023/08/03 08:21:12;;;;;;;7.43;3.90;;;32.10;51.10;;;;;;5095431;28;20036;-57
2023/08/03 08:23:39;;;;;;;11.07;4.68;;;32.70;53.70;;;;;;5095398;28;20269;-57
2023/08/03 08:26:12;;;;;;;10.82;5.10;;;33.20;51.40;;;;;;5095650;28;20378;-58
2023/08/03 08:28:40;;;;;;;8.38;4.10;;;33.40;47.00;;;;;;5095180;28;20032;-58
2023/08/03 08:31:06;;;;;;;8.85;4.30;;;33.50;54.20;;;;;;5095177;28;20016;-58
2023/08/03 08:33:32;;;;;;;6.45;4.38;;;33.80;48.40;;;;;;5095441;28;20117;-58
2023/08/03 08:35:58;;;;;;;9.55;3.97;;;34.30;49.10;;;;;;5095178;28;20016;-58
2023/08/03 08:38:24;;;;;;;10.95;4.28;;;34.70;45.50;;;;;;5095196;28;20024;-58
2023/08/03 08:40:49;;;;;;;8.70;4.22;;;34.70;43.30;;;;;;5095212;28;20107;-58
2023/08/03 08:43:18;;;;;;;7.03;3.97;;;34.60;40.20;;;;;;5095264;28;20320;-58
2023/08/03 08:45:44;;;;;;;7.97;4.45;;;34.00;39.60;;;;;;5095329;28;20024;-58
2023/08/03 08:48:10;;;;;;;5.05;3.75;;;34.30;44.00;;;;;;5095048;28;20031;-58
2023/08/03 08:50:37;;;;;;;10.65;4.65;;;33.80;37.70;;;;;;5095039;28;20457;-58
2023/08/03 08:53:03;;;;;;;13.30;4.10;;;34.40;39.70;;;;;;5095123;28;20031;-58
2023/08/03 08:55:30;;;;;;;5.88;3.55;;;34.70;37.40;;;;;;5095064;28;20460;-58
2023/08/03 08:57:57;;;;;;;7.07;3.97;;;35.00;39.40;;;;;;5094791;28;20057;-58
2023/08/03 09:00:25;;;;;;;6.72;3.97;;;35.10;39.20;;;;;;5094710;28;20020;-58
2023/08/03 09:03:00;;;;;;;5.93;4.20;;;35.30;42.70;;;;;;5094847;28;20039;-58
2023/08/03 09:05:27;;;;;;;6.55;4.43;;;35.70;41.50;;;;;;5094662;28;20067;-58
2023/08/03 09:08:13;;;;;;;8.23;3.95;;;36.00;37.80;;;;;;5094712;28;20477;-58
2023/08/03 09:10:53;;;;;;;7.93;4.50;;;35.70;39.90;;;;;;5094799;28;20020;-58
2023/08/03 09:13:32;;;;;;;13.35;5.22;;;35.00;37.20;;;;;;5094682;28;20378;-58
2023/08/03 09:15:58;;;;;;;7.05;3.92;;;35.40;43.10;;;;;;5094655;28;20028;-58
2023/08/03 09:18:27;;;;;;;8.57;4.72;;;36.20;41.80;;;;;;5094689;28;20032;-58
2023/08/03 09:21:13;;;;;;;8.07;4.35;;;35.70;36.50;;;;;;5094044;28;20149;-58
2023/08/03 09:23:40;;;;;;;8.52;4.30;;;35.60;35.80;;;;;;5071055;28;20027;-58
2023/08/03 09:26:06;;;;;;;9.75;4.38;;;36.10;37.40;;;;;;5094222;28;20028;-58
2023/08/03 09:28:36;;;;;;;11.25;4.65;;;36.40;35.30;;;;;;5094413;28;20028;-58
2023/08/03 09:31:03;;;;;;;9.13;4.15;;;36.10;34.60;;;;;;5094426;28;20024;-58
2023/08/03 09:33:30;;;;;;;14.32;4.25;;;35.90;34.70;;;;;;5094345;28;20464;-58
2023/08/03 09:36:14;;;;;;;11.75;4.28;;;36.00;36.60;;;;;;5094351;28;20031;-58
2023/08/03 09:38:43;;;;;;;9.10;4.43;;;36.70;38.70;;;;;;5094257;28;20039;-58
2023/08/03 09:41:10;;;;;;;9.13;5.30;;;36.90;39.30;;;;;;5094204;28;20032;-58
2023/08/03 09:43:38;;;;;;;6.95;3.65;;;37.10;36.90;;;;;;5094252;28;20038;-58
2023/08/03 09:46:04;;;;;;;13.35;4.57;;;37.50;35.70;;;;;;5094253;28;20031;-58
2023/08/03 09:48:30;;;;;;;6.60;3.92;;;37.60;35.70;;;;;;5094192;28;20031;-59
2023/08/03 09:50:58;;;;;;;14.20;5.13;;;37.30;36.20;;;;;;5094248;28;20493;-58
2023/08/03 09:53:37;;;;;;;6.22;3.92;;;37.50;38.50;;;;;;5093702;28;20035;-58
2023/08/03 09:56:05;;;;;;;9.07;5.18;;;37.80;34.70;;;;;;5094515;28;20028;-57
2023/08/03 09:58:42;;;;;;;9.38;3.75;;;37.50;33.00;;;;;;5094409;28;20086;-57
2023/08/03 10:01:12;;;;;;;7.97;3.85;;;37.70;32.20;;;;;;5093696;28;20050;-57
2023/08/03 10:03:44;;;;;;;7.70;4.40;;;37.40;31.50;;;;;;5093958;28;20036;-57
2023/08/03 10:06:23;;;;;;;11.30;4.88;;;38.20;33.60;;;;;;5094031;28;20036;-57
2023/08/03 10:09:19;;;;;;;10.02;3.83;;;38.70;32.60;;;;;;5094169;28;20024;-57
2023/08/03 10:11:47;;;;;;;7.22;3.78;;;38.50;29.70;;;;;;5091421;28;20032;-57
2023/08/03 10:14:16;;;;;;;10.00;4.13;;;38.20;32.00;;;;;;5093911;28;20028;-57
2023/08/03 10:16:44;;;;;;;7.72;3.72;;;37.30;32.40;;;;;;5094625;28;20090;-57
2023/08/03 10:19:11;;;;;;;8.65;3.78;;;37.80;37.60;;;;;;5094734;28;20034;-57
2023/08/03 10:21:38;;;;;;;7.25;3.83;;;38.00;32.90;;;;;;5094446;28;20533;-57
2023/08/03 10:24:11;;;;;;;17.08;5.60;;;38.60;30.70;;;;;;5094707;28;20020;-59
2023/08/03 10:26:37;;;;;;;7.07;4.25;;;38.90;30.00;;;;;;5088583;28;20022;-57
2023/08/03 10:29:06;;;;;;;6.20;4.03;;;38.60;31.70;;;;;;5088735;28;20036;-57
2023/08/03 10:31:32;;;;;;;7.77;4.63;;;39.10;30.00;;;;;;5094176;28;20074;-57
2023/08/03 10:33:58;;;;;;;9.70;4.57;;;39.40;30.30;;;;;;5096503;28;20264;-58
2023/08/03 10:38:57;;;;;;;12.40;5.35;;;39.30;28.60;;;;;;5097670;28;20042;-58
2023/08/03 10:41:27;;;;;;;8.00;4.45;;;39.10;29.60;;;;;;5097274;28;20366;-58
2023/08/03 10:44:20;;;;;;;12.40;4.88;;;39.30;30.80;;;;;;5097375;28;20544;-58
2023/08/03 10:46:51;;;;;;;11.23;4.93;;;39.00;29.60;;;;;;5097480;28;20070;-58
2023/08/03 10:51:45;;;;;;;10.50;4.50;;;38.00;31.40;;;;;;5097128;28;20466;-58
2023/08/03 10:54:12;;;;;;;11.57;4.97;;;37.90;29.30;;;;;;5097391;28;20035;-58
2023/08/03 10:56:38;;;;;;;8.30;4.28;;;38.30;31.00;;;;;;5097217;28;20028;-58
2023/08/03 10:59:04;;;;;;;7.07;4.13;;;37.60;29.90;;;;;;5097027;28;20081;-58
2023/08/03 11:01:30;;;;;;;13.70;5.32;;;38.30;31.30;;;;;;5097393;28;20609;-58
2023/08/03 11:03:58;;;;;;;9.85;5.13;;;39.00;30.90;;;;;;5096829;28;20077;-58
2023/08/03 11:06:28;;;;;;;11.43;4.13;;;37.90;28.50;;;;;;5097090;28;20070;-58
2023/08/03 11:08:55;;;;;;;7.85;4.57;;;36.90;29.40;;;;;;5097120;28;20036;-58
2023/08/03 11:11:32;;;;;;;12.32;4.82;;;38.00;29.90;;;;;;5096664;28;20035;-58
2023/08/03 11:13:58;;;;;;;8.07;4.30;;;38.30;28.70;;;;;;5097375;28;20033;-58
2023/08/03 11:16:24;;;;;;;12.50;5.75;;;38.80;31.60;;;;;;5097011;28;20057;-58
2023/08/03 11:18:50;;;;;;;8.52;3.78;;;39.10;29.90;;;;;;5096598;28;20108;-58
2023/08/03 11:21:16;;;;;;;8.75;4.53;;;39.60;29.50;;;;;;5096676;28;20552;-58
2023/08/03 11:23:42;;;;;;;12.20;4.95;;;40.00;27.80;;;;;;5096809;28;20028;-58
2023/08/03 11:26:09;;;;;;;6.22;3.70;;;40.10;27.70;;;;;;5096643;28;20055;-58
2023/08/03 11:28:42;;;;;;;12.57;5.13;;;40.00;27.40;;;;;;5096642;28;20024;-58
2023/08/03 11:31:34;;;;;;;11.80;4.82;;;40.10;27.40;;;;;;5096094;28;20035;-58
2023/08/03 11:34:00;;;;;;;13.00;5.88;;;40.10;26.80;;;;;;5092677;28;20032;-58
2023/08/03 11:36:26;;;;;;;9.02;4.43;;;40.10;27.40;;;;;;5096246;28;20020;-58
2023/08/03 11:38:52;;;;;;;5.32;3.90;;;39.10;26.80;;;;;;5078104;28;20063;-58
2023/08/03 11:41:22;;;;;;;9.88;4.18;;;39.30;30.50;;;;;;5095968;28;20036;-58
2023/08/03 11:43:49;;;;;;;6.90;4.00;;;40.00;28.20;;;;;;5096133;28;20381;-58
2023/08/03 11:46:19;;;;;;;7.25;3.85;;;39.80;25.20;;;;;;5095743;28;20099;-58
2023/08/03 11:48:48;;;;;;;7.07;4.22;;;39.70;27.90;;;;;;5095900;28;20082;-58
2023/08/03 11:51:14;;;;;;;4.63;3.70;;;39.90;25.10;;;;;;5096247;28;20366;-58
2023/08/03 11:53:40;;;;;;;10.70;4.47;;;40.10;27.50;;;;;;5094349;28;20086;-58
2023/08/03 11:56:10;;;;;;;11.43;4.93;;;40.20;27.30;;;;;;5095373;28;20024;-58
2023/08/03 11:58:36;;;;;;;8.30;3.85;;;40.20;28.10;;;;;;5096192;28;20028;-58
2023/08/03 12:01:04;;;;;;;7.00;3.63;;;40.50;26.50;;;;;;5095821;28;20032;-58
2023/08/03 12:03:35;;;;;;;24.27;5.90;;;40.50;26.20;;;;;;5095657;28;20024;-59
2023/08/03 12:06:05;;;;;;;5.93;3.88;;;40.40;25.70;;;;;;5095653;28;20378;-58
2023/08/03 12:08:48;;;;;;;12.38;5.30;;;40.30;26.30;;;;;;5095842;28;20032;-58
2023/08/03 12:11:18;;;;;;;9.68;4.00;;;40.50;28.00;;;;;;5095759;28;20074;-58
2023/08/03 12:13:45;;;;;;;7.32;3.88;;;38.70;25.60;;;;;;5095723;28;20081;-58
2023/08/03 12:16:11;;;;;;;8.07;3.67;;;39.10;26.00;;;;;;5095390;28;20104;-58
2023/08/03 12:18:37;;;;;;;7.28;3.50;;;38.60;26.80;;;;;;5095741;28;20074;-59
2023/08/03 12:21:03;;;;;;;13.88;4.80;;;38.90;29.10;;;;;;5077415;28;20035;-59
2023/08/03 12:23:29;;;;;;;5.53;4.32;;;39.40;29.50;;;;;;5095683;28;20028;-59
2023/08/03 12:25:55;;;;;;;10.00;3.88;;;40.00;26.10;;;;;;5095473;28;20028;-59
2023/08/03 12:28:21;;;;;;;7.50;4.05;;;40.30;26.10;;;;;;5093416;28;20035;-59
2023/08/03 12:30:47;;;;;;;7.35;3.58;;;40.40;26.80;;;;;;5095491;28;20024;-59
2023/08/03 12:33:13;;;;;;;10.25;3.92;;;40.40;28.60;;;;;;5093542;28;20408;-59
2023/08/03 12:35:39;;;;;;;10.43;4.50;;;40.40;27.60;;;;;;5095217;28;20103;-58
2023/08/03 12:38:05;;;;;;;10.02;4.05;;;40.30;24.70;;;;;;5095707;28;20506;-59
2023/08/03 12:40:31;;;;;;;7.13;3.58;;;40.10;24.10;;;;;;5095306;28;20036;-59
2023/08/03 12:42:57;;;;;;;7.20;3.72;;;39.30;24.70;;;;;;5095238;28;20063;-59
2023/08/03 12:45:24;;;;;;;8.18;4.05;;;39.50;28.50;;;;;;5094945;28;20477;-59
2023/08/03 12:47:53;;;;;;;16.10;5.28;;;39.90;25.80;;;;;;5095167;28;20032;-59